createdAt,value
2023-04-04T00:00:48.628Z,1011.90
2023-04-04T00:01:48.625Z,1011.96
2023-04-04T00:02:48.735Z,1011.84
2023-04-04T00:03:48.816Z,1011.71
2023-04-04T00:04:48.654Z,1011.74
2023-04-04T00:05:48.661Z,1011.86
2023-04-04T00:06:48.604Z,1011.80
2023-04-04T00:07:48.567Z,1011.73
2023-04-04T00:08:48.575Z,1011.82
2023-04-04T00:09:49.471Z,1011.78
2023-04-04T00:10:48.552Z,1011.74
2023-04-04T00:11:48.537Z,1011.88
2023-04-04T00:12:48.547Z,1011.86
2023-04-04T00:13:48.548Z,1011.90
2023-04-04T00:14:49.242Z,1011.87
2023-04-04T00:15:48.565Z,1011.80
2023-04-04T00:16:48.540Z,1011.81
2023-04-04T00:17:48.536Z,1011.83
2023-04-04T00:18:48.502Z,1011.81
2023-04-04T00:19:48.479Z,1011.84
2023-04-04T00:20:49.267Z,1011.82
2023-04-04T00:21:48.534Z,1011.76
2023-04-04T00:22:48.464Z,1011.82
2023-04-04T00:23:49.484Z,1011.85
2023-04-04T00:24:48.437Z,1011.83
2023-04-04T00:25:48.455Z,1011.75
2023-04-04T00:26:48.934Z,1011.84
2023-04-04T00:27:48.416Z,1011.76
2023-04-04T00:28:48.414Z,1011.83
2023-04-04T00:29:48.430Z,1011.81
2023-04-04T00:30:48.440Z,1011.83
2023-04-04T00:31:49.332Z,1011.77
2023-04-04T00:32:48.421Z,1011.74
2023-04-04T00:33:48.377Z,1011.76
2023-04-04T00:34:48.385Z,1011.75
2023-04-04T00:35:48.400Z,1011.75
2023-04-04T00:36:48.382Z,1011.75
2023-04-04T00:37:49.028Z,1011.75
2023-04-04T00:38:48.335Z,1011.77
2023-04-04T00:39:48.364Z,1011.75
2023-04-04T00:40:48.331Z,1011.74
2023-04-04T00:41:48.332Z,1011.72
2023-04-04T00:42:48.417Z,1011.71
2023-04-04T00:43:48.333Z,1011.71
2023-04-04T00:44:48.315Z,1011.76
2023-04-04T00:45:49.382Z,1011.77
2023-04-04T00:46:48.290Z,1011.68
2023-04-04T00:47:48.287Z,1011.69
2023-04-04T00:48:48.251Z,1011.70
2023-04-04T00:49:48.329Z,1011.68
2023-04-04T00:50:48.263Z,1011.69
2023-04-04T00:51:48.242Z,1011.71
2023-04-04T00:52:48.272Z,1011.71
2023-04-04T00:53:48.237Z,1011.72
2023-04-04T00:54:48.225Z,1011.68
2023-04-04T00:55:48.925Z,1011.68
2023-04-04T00:56:48.227Z,1011.69
2023-04-04T00:57:48.238Z,1011.64
2023-04-04T00:58:48.243Z,1011.65
2023-04-04T00:59:48.758Z,1011.63
2023-04-04T01:00:48.294Z,1011.65
2023-04-04T01:01:48.207Z,1011.65
2023-04-04T01:02:48.232Z,1011.62
2023-04-04T01:03:48.145Z,1011.59
2023-04-04T01:04:48.157Z,1011.57
2023-04-04T01:05:49.753Z,1011.56
2023-04-04T01:06:48.186Z,1011.66
2023-04-04T01:07:48.119Z,1011.61
2023-04-04T01:08:48.109Z,1011.61
2023-04-04T01:09:48.120Z,1011.63
2023-04-04T01:10:48.902Z,1011.60
2023-04-04T01:11:48.107Z,1011.57
2023-04-04T01:12:48.137Z,1011.56
2023-04-04T01:13:48.117Z,1011.57
2023-04-04T01:14:48.071Z,1011.50
2023-04-04T01:15:48.074Z,1011.54
2023-04-04T01:16:48.091Z,1011.56
2023-04-04T01:17:49.985Z,1011.57
2023-04-04T01:18:48.058Z,1011.51
2023-04-04T01:19:48.023Z,1011.57
2023-04-04T01:20:48.004Z,1011.49
2023-04-04T01:21:50.837Z,1011.52
2023-04-04T01:22:48.015Z,1011.54
2023-04-04T01:23:47.998Z,1011.49
2023-04-04T01:24:48.005Z,1011.52
2023-04-04T01:25:47.998Z,1011.49
2023-04-04T01:26:47.995Z,1011.47
2023-04-04T01:27:47.963Z,1011.45
2023-04-04T01:28:48.140Z,1011.51
2023-04-04T01:29:47.948Z,1011.46
2023-04-04T01:30:47.972Z,1011.46
2023-04-04T01:31:47.930Z,1011.45
2023-04-04T01:32:47.965Z,1011.47
2023-04-04T01:33:48.519Z,1011.46
2023-04-04T01:34:47.985Z,1011.45
2023-04-04T01:35:47.966Z,1011.42
2023-04-04T01:36:47.895Z,1011.40
2023-04-04T01:37:47.904Z,1011.43
2023-04-04T01:38:47.892Z,1011.46
2023-04-04T01:39:47.882Z,1011.44
2023-04-04T01:40:47.882Z,1011.43
2023-04-04T01:41:47.859Z,1011.42
2023-04-04T01:42:47.848Z,1011.44
2023-04-04T01:43:47.847Z,1011.40
2023-04-04T01:44:47.853Z,1011.36
2023-04-04T01:45:47.970Z,1011.39
2023-04-04T01:46:47.819Z,1011.42
2023-04-04T01:47:47.808Z,1011.34
2023-04-04T01:48:47.835Z,1011.37
2023-04-04T01:49:47.851Z,1011.36
2023-04-04T01:50:47.813Z,1011.40
2023-04-04T01:51:48.413Z,1011.34
2023-04-04T01:52:47.766Z,1011.34
2023-04-04T01:53:47.761Z,1011.36
2023-04-04T01:54:47.792Z,1011.38
2023-04-04T01:55:48.338Z,1011.35
2023-04-04T01:56:48.357Z,1011.33
2023-04-04T01:57:47.736Z,1011.36
2023-04-04T01:58:47.745Z,1011.35
2023-04-04T01:59:47.758Z,1011.29
2023-04-04T02:00:47.707Z,1011.36
2023-04-04T02:01:48.521Z,1011.34
2023-04-04T02:02:47.714Z,1011.27
2023-04-04T02:03:47.762Z,1011.31
2023-04-04T02:04:47.677Z,1011.32
2023-04-04T02:05:47.686Z,1011.32
2023-04-04T02:06:48.345Z,1011.37
2023-04-04T02:07:47.665Z,1011.34
2023-04-04T02:08:47.657Z,1011.36
2023-04-04T02:09:47.654Z,1011.35
2023-04-04T02:10:47.656Z,1011.40
2023-04-04T02:11:47.641Z,1011.32
2023-04-04T02:12:47.637Z,1011.39
2023-04-04T02:13:47.689Z,1011.38
2023-04-04T02:14:47.607Z,1011.33
2023-04-04T02:15:47.635Z,1011.41
2023-04-04T02:16:47.598Z,1011.38
2023-04-04T02:17:47.686Z,1011.41
2023-04-04T02:18:47.653Z,1011.40
2023-04-04T02:19:47.579Z,1011.45
2023-04-04T02:20:47.615Z,1011.43
2023-04-04T02:21:47.553Z,1011.39
2023-04-04T02:22:47.552Z,1011.39
2023-04-04T02:23:47.622Z,1011.40
2023-04-04T02:24:47.527Z,1011.36
2023-04-04T02:25:47.542Z,1011.39
2023-04-04T02:26:47.553Z,1011.31
2023-04-04T02:27:47.524Z,1011.32
2023-04-04T02:28:47.569Z,1011.36
2023-04-04T02:29:48.261Z,1011.33
2023-04-04T02:30:47.485Z,1011.33
2023-04-04T02:31:47.517Z,1011.29
2023-04-04T02:32:48.554Z,1011.30
2023-04-04T02:33:47.534Z,1011.31
2023-04-04T02:34:48.321Z,1011.31
2023-04-04T02:35:47.456Z,1011.30
2023-04-04T02:36:47.494Z,1011.26
2023-04-04T02:37:47.500Z,1011.25
2023-04-04T02:38:47.574Z,1011.29
2023-04-04T02:39:47.431Z,1011.31
2023-04-04T02:40:47.448Z,1011.24
2023-04-04T02:41:47.946Z,1011.25
2023-04-04T02:42:47.376Z,1011.22
2023-04-04T02:43:47.421Z,1011.26
2023-04-04T02:44:47.988Z,1011.25
2023-04-04T02:45:47.424Z,1011.31
2023-04-04T02:46:47.928Z,1011.23
2023-04-04T02:47:48.389Z,1011.24
2023-04-04T02:48:47.919Z,1011.23
2023-04-04T02:49:47.362Z,1011.30
2023-04-04T02:50:47.394Z,1011.27
2023-04-04T02:51:47.425Z,1011.26
2023-04-04T02:52:47.427Z,1011.24
2023-04-04T02:53:47.338Z,1011.25
2023-04-04T02:54:47.306Z,1011.19
2023-04-04T02:55:47.327Z,1011.22
2023-04-04T02:56:47.303Z,1011.12
2023-04-04T02:57:47.919Z,1011.12
2023-04-04T02:58:47.366Z,1011.18
2023-04-04T02:59:47.304Z,1011.14
2023-04-04T03:00:47.310Z,1011.16
2023-04-04T03:01:47.288Z,1011.13
2023-04-04T03:02:47.392Z,1011.08
2023-04-04T03:03:47.464Z,1011.05
2023-04-04T03:04:47.244Z,1011.15
2023-04-04T03:05:47.209Z,1011.09
2023-04-04T03:06:47.221Z,1011.12
2023-04-04T03:07:47.217Z,1011.19
2023-04-04T03:08:47.220Z,1011.10
2023-04-04T03:09:47.299Z,1011.11
2023-04-04T03:10:47.217Z,1011.13
2023-04-04T03:11:47.204Z,1011.14
2023-04-04T03:12:47.176Z,1011.09
2023-04-04T03:13:48.014Z,1011.05
2023-04-04T03:14:47.970Z,1011.07
2023-04-04T03:15:47.385Z,1011.06
2023-04-04T03:16:47.236Z,1011.10
2023-04-04T03:17:47.164Z,1011.15
2023-04-04T03:18:47.150Z,1011.08
2023-04-04T03:19:47.276Z,1011.06
2023-04-04T03:20:47.154Z,1011.14
2023-04-04T03:21:47.132Z,1011.13
2023-04-04T03:22:47.114Z,1011.11
2023-04-04T03:23:47.091Z,1011.15
2023-04-04T03:24:47.142Z,1011.07
2023-04-04T03:25:47.999Z,1011.10
2023-04-04T03:26:47.065Z,1011.10
2023-04-04T03:27:47.076Z,1011.06
2023-04-04T03:28:47.063Z,1011.07
2023-04-04T03:29:47.045Z,1011.10
2023-04-04T03:30:47.039Z,1011.08
2023-04-04T03:31:47.057Z,1011.00
2023-04-04T03:32:47.069Z,1010.99
2023-04-04T03:33:47.059Z,1011.07
2023-04-04T03:34:47.059Z,1011.04
2023-04-04T03:35:47.064Z,1011.07
2023-04-04T03:36:47.018Z,1011.07
2023-04-04T03:37:48.070Z,1011.09
2023-04-04T03:38:47.000Z,1011.05
2023-04-04T03:39:46.977Z,1011.04
2023-04-04T03:40:47.969Z,1011.01
2023-04-04T03:41:46.947Z,1011.03
2023-04-04T03:42:47.089Z,1011.02
2023-04-04T03:43:46.956Z,1011.04
2023-04-04T03:44:46.944Z,1011.04
2023-04-04T03:45:46.917Z,1011.00
2023-04-04T03:46:46.911Z,1010.96
2023-04-04T04:02:52.454Z,1011.13
2023-04-04T04:03:52.506Z,1011.13
2023-04-04T04:04:52.392Z,1011.10
2023-04-04T04:05:52.375Z,1011.08
2023-04-04T04:06:52.347Z,1011.11
2023-04-04T04:07:53.489Z,1011.13
2023-04-04T04:08:53.533Z,1011.09
2023-04-04T04:09:53.500Z,1011.07
2023-04-04T04:10:53.455Z,1011.07
2023-04-04T04:11:53.592Z,1011.05
2023-04-04T04:12:53.442Z,1011.09
2023-04-04T04:13:53.466Z,1011.04
2023-04-04T04:14:53.436Z,1011.06
2023-04-04T04:15:53.468Z,1011.03
2023-04-04T04:16:53.457Z,1011.02
2023-04-04T04:17:53.488Z,1011.00
2023-04-04T04:18:54.137Z,1011.07
2023-04-04T04:19:53.401Z,1011.02
2023-04-04T04:20:53.421Z,1011.03
2023-04-04T04:21:53.383Z,1011.07
2023-04-04T04:22:54.357Z,1011.03
2023-04-04T04:23:55.130Z,1010.99
2023-04-04T04:24:53.367Z,1011.05
2023-04-04T04:25:53.409Z,1011.03
2023-04-04T04:26:53.365Z,1011.07
2023-04-04T04:27:53.357Z,1011.09
2023-04-04T04:28:53.997Z,1011.09
2023-04-04T04:29:54.130Z,1011.09
2023-04-04T04:30:53.321Z,1011.04
2023-04-04T04:31:53.444Z,1011.04
2023-04-04T04:32:53.570Z,1011.07
2023-04-04T04:33:53.315Z,1010.99
2023-04-04T04:34:53.309Z,1010.99
2023-04-04T04:35:53.312Z,1011.01
2023-04-04T04:36:53.273Z,1010.99
2023-04-04T04:37:53.283Z,1010.96
2023-04-04T04:38:53.382Z,1010.99
2023-04-04T04:39:53.278Z,1010.90
2023-04-04T04:40:53.261Z,1010.89
2023-04-04T04:41:53.262Z,1010.98
2023-04-04T04:42:53.425Z,1010.93
2023-04-04T04:43:54.249Z,1010.91
2023-04-04T04:44:53.248Z,1010.98
2023-04-04T04:45:53.216Z,1010.92
2023-04-04T04:46:54.182Z,1010.93
2023-04-04T04:47:53.265Z,1010.90
2023-04-04T04:48:53.219Z,1010.92
2023-04-04T04:49:53.243Z,1010.87
2023-04-04T04:50:53.180Z,1010.89
2023-04-04T04:51:56.141Z,1010.88
2023-04-04T04:52:53.168Z,1010.83
2023-04-04T04:53:53.180Z,1010.88
2023-04-04T04:54:54.093Z,1010.87
2023-04-04T04:55:53.162Z,1010.84
2023-04-04T04:56:53.119Z,1010.80
2023-04-04T04:57:53.153Z,1010.86
2023-04-04T04:58:53.172Z,1010.91
2023-04-04T04:59:53.134Z,1010.80
2023-04-04T05:00:53.158Z,1010.84
2023-04-04T05:01:53.108Z,1010.85
2023-04-04T05:02:53.142Z,1010.84
2023-04-04T05:03:53.539Z,1010.81
2023-04-04T05:04:54.143Z,1010.83
2023-04-04T05:05:53.068Z,1010.82
2023-04-04T05:06:53.083Z,1010.81
2023-04-04T05:07:53.053Z,1010.81
2023-04-04T05:08:53.065Z,1010.83
2023-04-04T05:09:53.088Z,1010.84
2023-04-04T05:10:53.049Z,1010.89
2023-04-04T05:11:53.005Z,1010.84
2023-04-04T05:12:53.009Z,1010.83
2023-04-04T05:13:53.012Z,1010.84
2023-04-04T05:14:53.002Z,1010.92
2023-04-04T05:15:52.997Z,1010.91
2023-04-04T05:16:53.020Z,1010.90
2023-04-04T05:17:52.997Z,1010.94
2023-04-04T05:18:52.987Z,1010.87
2023-04-04T05:19:53.145Z,1010.87
2023-04-04T05:20:52.955Z,1010.89
2023-04-04T05:21:52.962Z,1010.87
2023-04-04T05:22:53.593Z,1010.82
2023-04-04T05:23:52.947Z,1010.88
2023-04-04T05:24:52.961Z,1010.86
2023-04-04T05:25:53.021Z,1010.86
2023-04-04T05:26:52.918Z,1010.87
2023-04-04T05:27:52.890Z,1010.86
2023-04-04T05:28:52.890Z,1010.86
2023-04-04T05:29:52.901Z,1010.88
2023-04-04T05:30:52.880Z,1010.76
2023-04-04T05:31:52.916Z,1010.71
2023-04-04T05:32:53.008Z,1010.49
2023-04-04T05:33:52.853Z,1010.29
2023-04-04T05:34:52.863Z,1010.24
2023-04-04T05:35:52.907Z,1010.15
2023-04-04T05:36:52.862Z,1010.04
2023-04-04T05:37:52.966Z,1009.97
2023-04-04T05:38:52.809Z,1009.86
2023-04-04T05:39:52.829Z,1009.82
2023-04-04T05:40:52.824Z,1009.83
2023-04-04T05:41:52.845Z,1009.78
2023-04-04T05:42:52.788Z,1009.72
2023-04-04T05:43:52.807Z,1009.65
2023-04-04T05:44:52.832Z,1009.63
2023-04-04T05:45:52.803Z,1009.55
2023-04-04T05:46:52.781Z,1009.53
2023-04-04T05:47:52.775Z,1009.55
2023-04-04T05:48:53.708Z,1009.62
2023-04-04T05:49:52.761Z,1009.67
2023-04-04T05:50:52.746Z,1009.56
2023-04-04T05:51:52.749Z,1009.56
2023-04-04T05:52:52.726Z,1009.52
2023-04-04T05:53:52.729Z,1009.48
2023-04-04T05:54:52.713Z,1009.49
2023-04-04T05:55:52.681Z,1009.43
2023-04-04T05:56:52.687Z,1009.38
2023-04-04T05:57:52.721Z,1009.44
2023-04-04T05:58:53.694Z,1009.42
2023-04-04T05:59:52.677Z,1009.37
2023-04-04T06:00:53.628Z,1009.36
2023-04-04T06:01:52.646Z,1009.33
2023-04-04T06:02:52.742Z,1009.21
2023-04-04T06:03:52.730Z,1009.25
2023-04-04T06:04:52.617Z,1009.24
2023-04-04T06:05:52.841Z,1009.25
2023-04-04T06:06:52.640Z,1009.21
2023-04-04T06:07:52.641Z,1009.13
2023-04-04T06:08:54.059Z,1009.07
2023-04-04T06:09:53.757Z,1009.03
2023-04-04T06:10:53.161Z,1009.01
2023-04-04T06:11:52.563Z,1009.06
2023-04-04T06:12:52.587Z,1009.07
2023-04-04T06:13:52.549Z,1009.10
2023-04-04T06:14:52.572Z,1009.07
2023-04-04T06:15:53.569Z,1009.22
2023-04-04T06:16:52.607Z,1009.17
2023-04-04T06:17:53.511Z,1009.24
2023-04-04T06:18:52.545Z,1009.28
2023-04-04T06:19:52.520Z,1009.36
2023-04-04T06:20:52.531Z,1009.49
2023-04-04T06:21:52.526Z,1009.47
2023-04-04T06:22:52.485Z,1009.52
2023-04-04T06:23:52.490Z,1009.58
2023-04-04T06:24:52.526Z,1009.62
2023-04-04T06:25:52.504Z,1009.66
2023-04-04T06:26:53.229Z,1009.72
2023-04-04T06:27:55.139Z,1009.68
2023-04-04T06:28:52.459Z,1009.70
2023-04-04T06:29:52.468Z,1009.71
2023-04-04T06:30:52.440Z,1009.63
2023-04-04T06:31:52.451Z,1009.69
2023-04-04T06:32:53.073Z,1009.60
2023-04-04T06:33:52.439Z,1009.61
2023-04-04T06:34:52.370Z,1009.55
2023-04-04T06:35:53.419Z,1009.51
2023-04-04T06:36:52.433Z,1009.45
2023-04-04T06:37:54.137Z,1009.38
2023-04-04T06:38:53.170Z,1009.33
2023-04-04T06:39:53.175Z,1009.22
2023-04-04T06:40:52.334Z,1009.27
2023-04-04T06:41:53.625Z,1009.24
2023-04-04T06:42:52.412Z,1009.19
2023-04-04T06:43:53.036Z,1009.19
2023-04-04T06:45:24.837Z,1009.18
2023-04-04T06:45:52.313Z,1009.14
2023-04-04T06:46:52.825Z,1009.14
2023-04-04T06:47:52.353Z,1009.17
2023-04-04T06:49:23.230Z,1009.24
2023-04-04T06:50:10.890Z,1009.23
2023-04-04T06:50:53.268Z,1009.17
2023-04-04T06:51:53.697Z,1009.23
2023-04-04T06:52:59.532Z,1009.27
2023-04-04T06:53:53.500Z,1009.20
2023-04-04T06:54:52.329Z,1009.21
2023-04-04T06:55:59.295Z,1009.24
2023-04-04T06:56:53.096Z,1009.24
2023-04-04T06:57:53.992Z,1009.21
2023-04-04T06:59:01.182Z,1009.24
2023-04-04T07:01:49.986Z,1009.23
2023-04-04T07:02:49.900Z,1009.23
2023-04-04T07:03:56.959Z,1009.22
2023-04-04T07:04:51.175Z,1009.22
2023-04-04T07:05:50.939Z,1009.21
2023-04-04T07:06:50.948Z,1009.18
2023-04-04T07:07:51.610Z,1009.14
2023-04-04T07:08:50.954Z,1009.17
2023-04-04T07:09:50.981Z,1009.13
2023-04-04T07:10:50.933Z,1009.16
2023-04-04T07:11:50.900Z,1009.12
2023-04-04T07:12:51.594Z,1009.09
2023-04-04T07:13:50.936Z,1009.10
2023-04-04T07:14:50.922Z,1009.14
2023-04-04T07:15:50.888Z,1009.13
2023-04-04T07:16:51.000Z,1009.13
2023-04-04T07:17:50.913Z,1009.08
2023-04-04T07:18:50.871Z,1009.10
2023-04-04T07:19:50.832Z,1009.08
2023-04-04T07:20:50.962Z,1009.06
2023-04-04T07:21:50.830Z,1009.02
2023-04-04T07:22:50.872Z,1009.05
2023-04-04T07:23:50.847Z,1009.02
2023-04-04T07:24:51.596Z,1009.08
2023-04-04T07:25:50.800Z,1009.03
2023-04-04T07:26:50.829Z,1009.06
2023-04-04T07:27:55.135Z,1009.07
2023-04-04T07:28:53.507Z,1009.00
2023-04-04T07:29:51.469Z,1009.08
2023-04-04T07:30:51.581Z,1009.03
2023-04-04T07:31:50.818Z,1009.05
2023-04-04T07:32:51.644Z,1009.07
2023-04-04T07:33:50.725Z,1009.07
2023-04-04T07:34:50.811Z,1009.16
2023-04-04T07:35:51.596Z,1009.33
2023-04-04T07:36:53.448Z,1009.39
2023-04-04T07:37:51.756Z,1009.52
2023-04-04T07:38:50.701Z,1009.58
2023-04-04T07:39:50.695Z,1009.62
2023-04-04T07:40:50.721Z,1009.65
2023-04-04T07:41:50.669Z,1009.70
2023-04-04T07:42:50.720Z,1009.76
2023-04-04T07:43:51.299Z,1009.79
2023-04-04T07:44:50.658Z,1009.70
2023-04-04T07:45:50.677Z,1009.68
2023-04-04T07:47:02.310Z,1009.76
2023-04-04T07:47:52.673Z,1009.69
2023-04-04T07:48:50.710Z,1009.79
2023-04-04T07:49:50.636Z,1009.78
2023-04-04T07:50:51.616Z,1009.90
2023-04-04T07:51:50.571Z,1009.94
2023-04-04T07:52:51.128Z,1009.94
2023-04-04T07:53:50.589Z,1010.05
2023-04-04T07:54:50.572Z,1010.12
2023-04-04T07:55:50.557Z,1010.12
2023-04-04T07:56:50.574Z,1010.25
2023-04-04T07:57:50.628Z,1010.24
2023-04-04T07:58:50.629Z,1010.30
2023-04-04T07:59:51.426Z,1010.28
2023-04-04T08:00:51.168Z,1010.26
2023-04-04T08:01:50.562Z,1010.32
2023-04-04T08:02:50.566Z,1010.34
2023-04-04T08:03:50.779Z,1010.27
2023-04-04T08:04:50.545Z,1010.29
2023-04-04T08:05:51.098Z,1010.34
2023-04-04T08:06:50.496Z,1010.33
2023-04-04T08:07:50.500Z,1010.34
2023-04-04T08:08:50.456Z,1010.37
2023-04-04T08:09:50.453Z,1010.41
2023-04-04T08:10:50.444Z,1010.44
2023-04-04T08:11:50.516Z,1010.44
2023-04-04T08:12:51.532Z,1010.46
2023-04-04T08:13:51.450Z,1010.53
2023-04-04T08:14:50.442Z,1010.45
2023-04-04T08:15:50.428Z,1010.45
2023-04-04T08:16:51.438Z,1010.49
2023-04-04T08:17:50.463Z,1010.47
2023-04-04T08:18:50.373Z,1010.47
2023-04-04T08:19:52.928Z,1010.51
2023-04-04T08:20:50.454Z,1010.55
2023-04-04T08:21:50.425Z,1010.52
2023-04-04T08:22:50.339Z,1010.55
2023-04-04T08:23:50.392Z,1010.58
2023-04-04T08:24:50.334Z,1010.51
2023-04-04T08:25:50.503Z,1010.57
2023-04-04T08:26:58.232Z,1010.51
2023-04-04T08:27:54.192Z,1010.50
2023-04-04T08:28:50.534Z,1010.56
2023-04-04T08:29:51.101Z,1010.53
2023-04-04T08:30:50.274Z,1010.52
2023-04-04T08:31:51.172Z,1010.46
2023-04-04T08:32:51.162Z,1010.45
2023-04-04T08:33:50.380Z,1010.50
2023-04-04T08:34:50.387Z,1010.50
2023-04-04T08:35:50.344Z,1010.40
2023-04-04T08:36:50.276Z,1010.45
2023-04-04T08:37:50.378Z,1010.40
2023-04-04T08:38:50.380Z,1010.43
2023-04-04T08:39:50.809Z,1010.40
2023-04-04T08:40:50.813Z,1010.40
2023-04-04T08:41:50.210Z,1010.40
2023-04-04T08:42:50.274Z,1010.37
2023-04-04T08:43:50.224Z,1010.35
2023-04-04T08:44:50.244Z,1010.37
2023-04-04T08:45:50.237Z,1010.33
2023-04-04T08:46:51.056Z,1010.27
2023-04-04T08:47:50.273Z,1010.24
2023-04-04T08:48:51.152Z,1010.22
2023-04-04T08:49:51.191Z,1010.26
2023-04-04T08:50:50.224Z,1010.26
2023-04-04T08:51:50.152Z,1010.20
2023-04-04T08:52:50.160Z,1010.24
2023-04-04T08:53:51.261Z,1010.21
2023-04-04T08:54:50.125Z,1010.23
2023-04-04T08:55:50.107Z,1010.26
2023-04-04T08:56:53.004Z,1010.27
2023-04-04T08:57:51.113Z,1010.27
2023-04-04T08:58:50.156Z,1010.29
2023-04-04T08:59:50.144Z,1010.33
2023-04-04T09:00:50.139Z,1010.30
2023-04-04T09:01:51.998Z,1010.36
2023-04-04T09:02:51.019Z,1010.48
2023-04-04T09:03:50.055Z,1010.38
2023-04-04T09:05:02.309Z,1010.45
2023-04-04T09:05:52.047Z,1010.53
2023-04-04T09:06:52.541Z,1010.44
2023-04-04T09:07:50.676Z,1010.47
2023-04-04T09:08:50.673Z,1010.53
2023-04-04T09:09:50.035Z,1010.55
2023-04-04T09:10:50.535Z,1010.56
2023-04-04T09:11:50.683Z,1010.54
2023-04-04T09:12:50.697Z,1010.53
2023-04-04T09:13:50.006Z,1010.54
2023-04-04T09:14:49.968Z,1010.61
2023-04-04T09:15:49.969Z,1010.60
2023-04-04T09:16:50.918Z,1010.49
2023-04-04T09:17:50.060Z,1010.50
2023-04-04T09:18:50.526Z,1010.43
2023-04-04T09:19:49.972Z,1010.51
2023-04-04T09:20:49.894Z,1010.48
2023-04-04T09:21:50.067Z,1010.49
2023-04-04T09:22:49.912Z,1010.41
2023-04-04T09:23:49.876Z,1010.26
2023-04-04T09:24:50.612Z,1010.29
2023-04-04T09:26:50.860Z,1010.30
2023-04-04T09:27:49.859Z,1010.25
2023-04-04T09:28:49.861Z,1010.19
2023-04-04T09:29:50.532Z,1010.25
2023-04-04T09:30:49.823Z,1010.19
2023-04-04T09:31:49.857Z,1010.12
2023-04-04T09:32:49.836Z,1010.14
2023-04-04T09:33:49.861Z,1009.95
2023-04-04T09:34:49.832Z,1009.97
2023-04-04T09:35:49.865Z,1009.99
2023-04-04T09:36:49.782Z,1009.96
2023-04-04T09:37:49.798Z,1009.94
2023-04-04T09:38:50.646Z,1010.02
2023-04-04T09:39:49.824Z,1009.98
2023-04-04T09:40:49.873Z,1009.95
2023-04-04T09:41:50.609Z,1010.08
2023-04-04T09:42:49.739Z,1010.11
2023-04-04T09:43:50.059Z,1010.06
2023-04-04T09:44:50.716Z,1010.09
2023-04-04T09:45:50.194Z,1010.17
2023-04-04T09:46:50.548Z,1010.19
2023-04-04T09:47:49.764Z,1010.22
2023-04-04T09:48:49.726Z,1010.18
2023-04-04T09:49:49.782Z,1010.23
2023-04-04T09:50:49.658Z,1010.28
2023-04-04T09:51:49.794Z,1010.25
2023-04-04T09:52:50.154Z,1010.24
2023-04-04T09:53:49.671Z,1010.28
2023-04-04T09:54:49.668Z,1010.30
2023-04-04T09:55:49.609Z,1010.35
2023-04-04T09:56:49.654Z,1010.31
2023-04-04T09:57:49.725Z,1010.32
2023-04-04T09:59:02.333Z,1010.36
2023-04-04T09:59:52.185Z,1010.28
2023-04-04T10:00:49.632Z,1010.29
2023-04-04T10:01:49.785Z,1010.30
2023-04-04T10:02:49.648Z,1010.32
2023-04-04T10:03:49.595Z,1010.28
2023-04-04T10:04:53.679Z,1010.29
2023-04-04T10:05:52.584Z,1010.31
2023-04-04T10:06:50.601Z,1010.23
2023-04-04T10:07:49.597Z,1010.18
2023-04-04T10:08:49.590Z,1010.16
2023-04-04T10:09:50.175Z,1010.15
2023-04-04T10:11:02.517Z,1010.09
2023-04-04T10:11:51.535Z,1010.02
2023-04-04T10:12:50.154Z,1010.04
2023-04-04T10:13:49.535Z,1010.05
2023-04-04T10:14:49.526Z,1009.98
2023-04-04T10:15:49.547Z,1009.95
2023-04-04T10:16:49.473Z,1009.94
2023-04-04T10:17:50.504Z,1009.90
2023-04-04T10:18:49.469Z,1009.90
2023-04-04T10:19:49.446Z,1009.81
2023-04-04T10:20:50.112Z,1009.86
2023-04-04T10:21:49.478Z,1009.76
2023-04-04T10:22:50.426Z,1009.80
2023-04-04T10:23:49.447Z,1009.74
2023-04-04T10:24:49.413Z,1009.77
2023-04-04T10:25:49.438Z,1009.69
2023-04-04T10:26:49.379Z,1009.72
2023-04-04T10:27:51.351Z,1009.63
2023-04-04T10:28:49.393Z,1009.69
2023-04-04T10:29:50.128Z,1009.74
2023-04-04T10:31:03.148Z,1009.74
2023-04-04T10:31:51.385Z,1009.69
2023-04-04T10:32:49.416Z,1009.83
2023-04-04T10:33:49.361Z,1009.73
2023-04-04T10:34:50.056Z,1009.74
2023-04-04T10:35:49.409Z,1009.79
2023-04-04T10:36:49.389Z,1009.88
2023-04-04T10:37:49.285Z,1009.82
2023-04-04T10:38:49.309Z,1009.75
2023-04-04T10:39:49.313Z,1009.89
2023-04-04T10:40:49.364Z,1009.81
2023-04-04T10:41:49.294Z,1009.82
2023-04-04T10:42:50.046Z,1009.87
2023-04-04T10:43:49.280Z,1009.90
2023-04-04T10:44:49.278Z,1009.90
2023-04-04T10:45:49.223Z,1009.87
2023-04-04T10:46:49.282Z,1009.85
2023-04-04T10:47:49.379Z,1009.89
2023-04-04T10:48:49.303Z,1009.94
2023-04-04T10:49:49.235Z,1009.87
2023-04-04T10:50:49.222Z,1009.95
2023-04-04T10:51:55.671Z,1009.93
2023-04-04T10:52:52.066Z,1009.89
2023-04-04T10:53:49.294Z,1009.88
2023-04-04T10:54:50.979Z,1009.87
2023-04-04T10:55:49.207Z,1009.93
2023-04-04T10:56:49.145Z,1009.91
2023-04-04T10:57:50.184Z,1009.92
2023-04-04T10:58:49.174Z,1009.88
2023-04-04T10:59:49.166Z,1009.71
2023-04-04T11:00:49.147Z,1009.81
2023-04-04T11:01:49.138Z,1009.73
2023-04-04T11:02:50.072Z,1009.68
2023-04-04T11:03:49.131Z,1009.73
2023-04-04T11:04:49.089Z,1009.72
2023-04-04T11:05:49.713Z,1009.64
2023-04-04T11:06:49.053Z,1009.62
2023-04-04T11:08:00.760Z,1009.58
2023-04-04T11:08:51.079Z,1009.56
2023-04-04T11:09:49.084Z,1009.47
2023-04-04T11:10:49.132Z,1009.54
2023-04-04T11:11:49.029Z,1009.48
2023-04-04T11:12:49.338Z,1009.44
2023-04-04T11:13:49.022Z,1009.49
2023-04-04T11:14:49.047Z,1009.44
2023-04-04T11:15:48.998Z,1009.45
2023-04-04T11:16:49.724Z,1009.39
2023-04-04T11:17:48.994Z,1009.35
2023-04-04T11:18:49.122Z,1009.29
2023-04-04T11:19:48.981Z,1009.33
2023-04-04T11:20:48.986Z,1009.20
2023-04-04T11:21:49.567Z,1009.22
2023-04-04T11:22:48.992Z,1009.24
2023-04-04T11:23:48.968Z,1009.28
2023-04-04T11:24:48.913Z,1009.20
2023-04-04T11:25:49.633Z,1009.21
2023-04-04T11:26:48.914Z,1009.19
2023-04-04T11:27:48.972Z,1009.17
2023-04-04T11:28:48.880Z,1009.15
2023-04-04T11:29:48.897Z,1009.19
2023-04-04T11:30:49.584Z,1009.15
2023-04-04T11:31:48.901Z,1009.16
2023-04-04T11:33:04.102Z,1009.17
2023-04-04T11:33:50.857Z,1009.24
2023-04-04T11:34:48.871Z,1009.14
2023-04-04T11:35:48.875Z,1009.07
2023-04-04T11:36:48.862Z,1009.10
2023-04-04T11:37:49.649Z,1009.13
2023-04-04T11:38:49.509Z,1009.09
2023-04-04T11:39:49.681Z,1009.10
2023-04-04T11:40:48.775Z,1009.12
2023-04-04T11:41:48.835Z,1009.06
2023-04-04T11:42:48.818Z,1009.04
2023-04-04T11:43:48.774Z,1009.03
2023-04-04T11:44:48.833Z,1008.98
2023-04-04T11:45:48.896Z,1008.98
2023-04-04T11:46:51.016Z,1008.94
2023-04-04T11:47:50.237Z,1009.05
2023-04-04T11:48:48.737Z,1009.01
2023-04-04T11:49:48.798Z,1009.06
2023-04-04T11:50:48.716Z,1009.01
2023-04-04T11:51:48.696Z,1009.06
2023-04-04T11:52:48.746Z,1009.13
2023-04-04T11:53:49.649Z,1009.14
2023-04-04T11:54:48.674Z,1009.12
2023-04-04T11:55:49.577Z,1009.10
2023-04-04T11:56:48.669Z,1009.14
2023-04-04T11:57:48.663Z,1009.07
2023-04-04T11:58:53.867Z,1009.05
2023-04-04T11:59:49.734Z,1008.99
2023-04-04T12:00:48.640Z,1009.00
2023-04-04T12:01:48.823Z,1008.97
2023-04-04T12:02:48.739Z,1008.87
2023-04-04T12:03:48.640Z,1008.89
2023-04-04T12:04:48.639Z,1008.86
2023-04-04T12:05:48.676Z,1008.82
2023-04-04T12:06:48.707Z,1008.82
2023-04-04T12:07:48.596Z,1008.82
2023-04-04T12:08:48.568Z,1008.84
2023-04-04T12:09:50.093Z,1008.72
2023-04-04T12:10:48.559Z,1008.84
2023-04-04T12:11:48.587Z,1008.79
2023-04-04T12:12:48.558Z,1008.75
2023-04-04T12:13:48.581Z,1008.82
2023-04-04T12:14:48.531Z,1008.89
2023-04-04T12:15:49.157Z,1008.89
2023-04-04T12:16:48.499Z,1008.85
2023-04-04T12:17:49.492Z,1008.91
2023-04-04T12:18:48.543Z,1008.87
2023-04-04T12:19:48.515Z,1008.92
2023-04-04T12:20:48.488Z,1008.90
2023-04-04T12:21:48.519Z,1008.93
2023-04-04T12:22:48.470Z,1008.92
2023-04-04T12:23:48.510Z,1008.88